Time;durP1;ratioP1;P1;durP2;ratioP2;P2;SDS_P1;SDS_P2;PMS_P1;PMS_P2;Temp;Humidity;BMP_temperature;BMP_pressure;BME280_temperature;BME280_humidity;BME280_pressure;Samples;Min_cycle;Max_cycle;Signal;HPM_P1;HPM_P2
2021/10/21 00:00:56;;;;;;;11.48;6.93;;;;;;;;;;5067149;28;20033;-57
2021/10/21 00:03:21;;;;;;;10.35;6.55;;;;;;;;;;5065108;28;20032;-59
2021/10/21 00:05:48;;;;;;;9.00;6.47;;;;;;;;;;5070954;28;20115;-58
2021/10/21 00:08:13;;;;;;;10.20;6.63;;;;;;;;;;5065451;28;20115;-58
2021/10/21 00:10:40;;;;;;;10.32;7.05;;;;;;;;;;5065841;28;20103;-59
2021/10/21 00:13:05;;;;;;;15.40;7.70;;;;;;;;;;5068050;28;20035;-59
2021/10/21 00:15:31;;;;;;;14.27;7.43;;;;;;;;;;5071717;28;20040;-58
2021/10/21 00:17:57;;;;;;;10.18;6.78;;;;;;;;;;5069772;28;20035;-59
2021/10/21 00:20:22;;;;;;;11.65;7.15;;;;;;;;;;5072712;28;20560;-59
2021/10/21 00:22:48;;;;;;;11.40;6.97;;;;;;;;;;5074039;28;20261;-59
2021/10/21 00:25:13;;;;;;;11.55;7.32;;;;;;;;;;5069494;28;20040;-58
2021/10/21 00:27:39;;;;;;;12.98;7.13;;;;;;;;;;5070051;28;20074;-59
2021/10/21 00:30:05;;;;;;;11.07;7.30;;;;;;;;;;5069524;28;20047;-59
2021/10/21 00:32:30;;;;;;;11.20;7.60;;;;;;;;;;5073269;28;20154;-59
2021/10/21 00:34:56;;;;;;;11.05;7.22;;;;;;;;;;5070181;28;20036;-59
2021/10/21 00:37:21;;;;;;;12.75;8.02;;;;;;;;;;5071034;28;20403;-59
2021/10/21 00:39:46;;;;;;;13.75;7.32;;;;;;;;;;5071325;28;20063;-59
2021/10/21 00:42:12;;;;;;;16.52;7.65;;;;;;;;;;5069126;28;20146;-59
2021/10/21 00:44:37;;;;;;;13.02;8.10;;;;;;;;;;5070677;28;20111;-59
2021/10/21 00:47:03;;;;;;;11.35;8.32;;;;;;;;;;5071327;28;20390;-59
2021/10/21 00:49:28;;;;;;;13.07;7.70;;;;;;;;;;5070008;28;20021;-59
2021/10/21 00:51:54;;;;;;;11.27;7.85;;;;;;;;;;5068446;28;20032;-59
2021/10/21 00:54:21;;;;;;;13.70;7.75;;;;;;;;;;5068541;28;20113;-59
2021/10/21 00:56:48;;;;;;;14.48;7.90;;;;;;;;;;5070368;28;20067;-59
2021/10/21 00:59:14;;;;;;;15.10;8.18;;;;;;;;;;5071794;28;20558;-59
2021/10/21 01:01:40;;;;;;;10.60;7.13;;;;;;;;;;5070772;28;20066;-59
2021/10/21 01:04:05;;;;;;;13.52;8.20;;;;;;;;;;5073083;28;20056;-59
2021/10/21 01:06:32;;;;;;;12.73;7.50;;;;;;;;;;5073807;28;20040;-59
2021/10/21 01:08:59;;;;;;;12.40;8.05;;;;;;;;;;5070534;28;20390;-59
2021/10/21 01:11:25;;;;;;;11.77;8.02;;;;;;;;;;5067204;28;20036;-59
2021/10/21 01:13:51;;;;;;;14.68;8.13;;;;;;;;;;5067119;28;20449;-60
2021/10/21 01:16:17;;;;;;;14.55;8.23;;;;;;;;;;5068430;28;20028;-59
2021/10/21 01:18:43;;;;;;;13.18;7.72;;;;;;;;;;5071180;28;20552;-60
2021/10/21 01:21:10;;;;;;;14.55;8.60;;;;;;;;;;5068827;28;20024;-59
2021/10/21 01:23:36;;;;;;;12.55;7.85;;;;;;;;;;5068944;28;20021;-59
2021/10/21 01:26:02;;;;;;;10.50;6.57;;;;;;;;;;5067388;28;20036;-59
2021/10/21 01:28:28;;;;;;;10.38;7.18;;;;;;;;;;5067407;28;20099;-59
2021/10/21 01:30:54;;;;;;;10.73;6.78;;;;;;;;;;5068760;28;20116;-59
2021/10/21 01:33:19;;;;;;;10.38;6.05;;;;;;;;;;5068237;28;20033;-59
2021/10/21 01:35:45;;;;;;;11.18;6.82;;;;;;;;;;5069906;28;20033;-59
2021/10/21 01:38:10;;;;;;;10.38;7.10;;;;;;;;;;5074490;28;20017;-59
2021/10/21 01:40:36;;;;;;;10.63;6.72;;;;;;;;;;5070986;28;20020;-59
2021/10/21 01:43:03;;;;;;;11.27;6.75;;;;;;;;;;5069461;28;20029;-59
2021/10/21 01:45:32;;;;;;;11.35;6.97;;;;;;;;;;5068914;28;20032;-59
2021/10/21 01:48:02;;;;;;;10.48;6.35;;;;;;;;;;5071206;28;20387;-59
2021/10/21 01:50:28;;;;;;;;;;;;;;;;;;5070784;28;20016;-60
2021/10/21 01:52:54;;;;;;;9.43;6.13;;;;;;;;;;5068801;28;19916;-59
2021/10/21 01:55:19;;;;;;;9.05;5.80;;;;;;;;;;5067798;28;20091;-59
2021/10/21 01:57:46;;;;;;;11.90;6.68;;;;;;;;;;5068170;28;20169;-59
2021/10/21 02:00:17;;;;;;;9.70;6.10;;;;;;;;;;5070494;28;20035;-59
2021/10/21 02:02:44;;;;;;;9.90;5.30;;;;;;;;;;5069696;28;20046;-59
2021/10/21 02:05:10;;;;;;;8.38;5.25;;;;;;;;;;5067726;28;20020;-59
2021/10/21 02:07:35;;;;;;;7.15;5.03;;;;;;;;;;5069728;28;20028;-59
2021/10/21 02:10:07;;;;;;;8.60;5.63;;;;;;;;;;5071349;28;20039;-59
2021/10/21 02:12:35;;;;;;;9.15;5.88;;;;;;;;;;5069917;28;20148;-59
2021/10/21 02:15:01;;;;;;;9.95;5.65;;;;;;;;;;5070790;28;20056;-59
2021/10/21 02:17:27;;;;;;;8.95;6.07;;;;;;;;;;5066973;28;20113;-59
2021/10/21 02:19:52;;;;;;;10.10;6.05;;;;;;;;;;5068240;28;20036;-60
2021/10/21 02:22:18;;;;;;;10.02;6.10;;;;;;;;;;5070259;28;20035;-60
2021/10/21 02:24:44;;;;;;;13.15;6.50;;;;;;;;;;5068631;28;20033;-58
2021/10/21 02:27:09;;;;;;;10.38;6.32;;;;;;;;;;5068464;28;20036;-59
2021/10/21 02:29:35;;;;;;;9.18;5.97;;;;;;;;;;5068439;28;20028;-59
2021/10/21 02:32:00;;;;;;;11.45;6.50;;;;;;;;;;5068818;28;20027;-59
2021/10/21 02:34:26;;;;;;;9.93;6.40;;;;;;;;;;5067314;28;20517;-58
2021/10/21 02:36:52;;;;;;;11.88;6.22;;;;;;;;;;5067382;28;20040;-58
2021/10/21 02:39:17;;;;;;;10.50;6.97;;;;;;;;;;5068858;28;20024;-58
2021/10/21 02:41:43;;;;;;;11.73;6.90;;;;;;;;;;5070007;28;20532;-58
2021/10/21 02:44:08;;;;;;;10.50;6.38;;;;;;;;;;5065870;28;20510;-58
2021/10/21 02:46:34;;;;;;;10.90;6.63;;;;;;;;;;5066527;28;20095;-58
2021/10/21 02:48:59;;;;;;;12.15;6.97;;;;;;;;;;5067832;28;20028;-58
2021/10/21 02:51:25;;;;;;;10.57;7.18;;;;;;;;;;5069950;28;20024;-58
2021/10/21 02:53:50;;;;;;;11.93;7.03;;;;;;;;;;5067745;28;20629;-58
2021/10/21 02:56:16;;;;;;;11.98;6.68;;;;;;;;;;5067308;28;20030;-58
2021/10/21 02:58:41;;;;;;;10.88;6.25;;;;;;;;;;5069044;28;20525;-57
2021/10/21 03:01:06;;;;;;;10.52;6.32;;;;;;;;;;5067054;28;20127;-57
2021/10/21 03:03:32;;;;;;;10.85;6.78;;;;;;;;;;5067496;28;20131;-58
2021/10/21 03:05:57;;;;;;;12.60;6.53;;;;;;;;;;5065847;28;20032;-57
2021/10/21 03:08:24;;;;;;;10.60;6.70;;;;;;;;;;5067752;28;20071;-57
2021/10/21 03:10:49;;;;;;;8.98;6.00;;;;;;;;;;5070219;28;20107;-58
2021/10/21 03:13:15;;;;;;;8.43;5.18;;;;;;;;;;5073229;28;20118;-57
2021/10/21 03:15:40;;;;;;;7.93;5.30;;;;;;;;;;5067630;28;20020;-58
2021/10/21 03:18:06;;;;;;;8.88;5.30;;;;;;;;;;5070025;28;20035;-57
2021/10/21 03:20:34;;;;;;;8.35;4.85;;;;;;;;;;5070335;28;20383;-57
2021/10/21 03:23:00;;;;;;;6.60;3.80;;;;;;;;;;5068623;28;20116;-57
2021/10/21 03:25:25;;;;;;;5.85;3.67;;;;;;;;;;5066941;28;20104;-59
2021/10/21 03:27:51;;;;;;;5.70;4.43;;;;;;;;;;5067120;28;20144;-58
2021/10/21 03:30:17;;;;;;;6.40;4.10;;;;;;;;;;5067658;28;20043;-58
2021/10/21 03:32:42;;;;;;;6.28;3.78;;;;;;;;;;5071617;28;20028;-57
2021/10/21 03:35:08;;;;;;;5.00;3.45;;;;;;;;;;5068053;28;20112;-58
2021/10/21 03:37:33;;;;;;;3.35;2.30;;;;;;;;;;5065222;28;20237;-58
2021/10/21 03:39:59;;;;;;;4.45;2.25;;;;;;;;;;5069640;28;20025;-58
2021/10/21 03:42:25;;;;;;;3.75;2.60;;;;;;;;;;5070185;28;20029;-58
2021/10/21 03:44:51;;;;;;;2.22;1.83;;;;;;;;;;5067555;28;20025;-57
2021/10/21 03:47:17;;;;;;;3.80;2.20;;;;;;;;;;5064511;28;20431;-58
2021/10/21 03:49:42;;;;;;;4.15;2.45;;;;;;;;;;5064874;28;20119;-57
2021/10/21 03:52:08;;;;;;;3.78;2.50;;;;;;;;;;5067536;28;20174;-57
2021/10/21 03:54:33;;;;;;;4.93;2.50;;;;;;;;;;5066606;28;20515;-58
2021/10/21 03:56:59;;;;;;;7.20;2.47;;;;;;;;;;5065280;28;20036;-58
2021/10/21 03:59:25;;;;;;;3.75;2.58;;;;;;;;;;5063579;28;20040;-57
2021/10/21 04:01:53;;;;;;;2.95;1.77;;;;;;;;;;5068645;28;20400;-57
2021/10/21 04:04:19;;;;;;;5.82;3.10;;;;;;;;;;5066752;28;20028;-58
2021/10/21 04:06:44;;;;;;;6.40;1.20;;;;;;;;;;5064062;28;20810;-57
2021/10/21 04:09:10;;;;;;;2.83;1.20;;;;;;;;;;5069491;28;20032;-57
2021/10/21 04:11:35;;;;;;;2.25;1.25;;;;;;;;;;5065383;28;20025;-58
2021/10/21 04:14:01;;;;;;;2.40;1.00;;;;;;;;;;5065643;28;20488;-57
2021/10/21 04:16:27;;;;;;;1.30;0.77;;;;;;;;;;5064616;28;20036;-58
2021/10/21 04:18:52;;;;;;;3.00;0.98;;;;;;;;;;5065287;28;20048;-57
2021/10/21 04:21:17;;;;;;;2.80;1.00;;;;;;;;;;5064749;28;20039;-58
2021/10/21 04:23:43;;;;;;;3.60;0.90;;;;;;;;;;5067675;28;20052;-57
2021/10/21 04:26:09;;;;;;;1.58;0.73;;;;;;;;;;5066257;28;20028;-58
2021/10/21 04:28:35;;;;;;;3.03;1.10;;;;;;;;;;5068774;28;20073;-57
2021/10/21 04:31:00;;;;;;;0.77;0.50;;;;;;;;;;5070916;28;20040;-57
2021/10/21 04:33:25;;;;;;;4.57;0.95;;;;;;;;;;5066759;28;20035;-58
2021/10/21 04:35:51;;;;;;;1.65;0.52;;;;;;;;;;5067161;28;20189;-58
2021/10/21 04:38:17;;;;;;;1.80;0.68;;;;;;;;;;5065628;28;20040;-57
2021/10/21 04:40:42;;;;;;;3.13;1.00;;;;;;;;;;5068748;28;20600;-57
2021/10/21 04:43:07;;;;;;;1.75;0.65;;;;;;;;;;5067651;28;20031;-58
2021/10/21 04:45:33;;;;;;;2.38;0.93;;;;;;;;;;5065751;28;20127;-57
2021/10/21 04:47:58;;;;;;;6.78;0.70;;;;;;;;;;5066841;28;20047;-57
2021/10/21 04:50:24;;;;;;;1.15;0.75;;;;;;;;;;5069602;28;20028;-56
2021/10/21 04:52:54;;;;;;;2.50;1.33;;;;;;;;;;5069353;28;20327;-57
2021/10/21 04:55:21;;;;;;;2.53;0.80;;;;;;;;;;5070441;28;20094;-57
2021/10/21 04:57:47;;;;;;;2.85;1.55;;;;;;;;;;5066231;28;20039;-57
2021/10/21 05:00:13;;;;;;;1.65;0.70;;;;;;;;;;5067791;28;20127;-57
2021/10/21 05:02:39;;;;;;;4.18;0.90;;;;;;;;;;5068315;28;20399;-57
2021/10/21 05:05:05;;;;;;;1.83;0.85;;;;;;;;;;5069884;28;20043;-57
2021/10/21 05:07:30;;;;;;;4.65;0.90;;;;;;;;;;5068791;28;20028;-57
2021/10/21 05:09:56;;;;;;;3.83;1.00;;;;;;;;;;5069993;28;20047;-58
2021/10/21 05:12:21;;;;;;;2.85;0.80;;;;;;;;;;5070190;28;20055;-57
2021/10/21 05:14:46;;;;;;;1.85;0.73;;;;;;;;;;5077967;28;20028;-56
2021/10/21 05:17:12;;;;;;;3.38;0.88;;;;;;;;;;5067472;28;20036;-57
2021/10/21 05:19:37;;;;;;;3.03;0.90;;;;;;;;;;5070149;28;20020;-57
2021/10/21 05:22:03;;;;;;;5.85;1.70;;;;;;;;;;5069569;28;20142;-57
2021/10/21 05:24:28;;;;;;;3.45;0.90;;;;;;;;;;5067905;28;20029;-58
2021/10/21 05:26:53;;;;;;;3.15;0.80;;;;;;;;;;5067968;28;20123;-58
2021/10/21 05:29:20;;;;;;;5.25;1.05;;;;;;;;;;5071608;28;20337;-57
2021/10/21 05:31:46;;;;;;;4.65;0.80;;;;;;;;;;5069915;28;20025;-57
2021/10/21 05:34:11;;;;;;;5.75;0.60;;;;;;;;;;5070805;28;20096;-57
2021/10/21 05:36:36;;;;;;;7.05;1.42;;;;;;;;;;5072177;28;20040;-58
2021/10/21 05:39:02;;;;;;;4.15;1.00;;;;;;;;;;5069772;28;20025;-57
2021/10/21 05:41:28;;;;;;;8.32;0.90;;;;;;;;;;5069435;28;20526;-57
2021/10/21 05:43:54;;;;;;;6.65;0.85;;;;;;;;;;5072510;28;20071;-57
2021/10/21 05:46:20;;;;;;;4.80;0.80;;;;;;;;;;5073617;28;20028;-58
2021/10/21 05:48:45;;;;;;;6.32;0.80;;;;;;;;;;5070930;28;20508;-57
2021/10/21 05:51:11;;;;;;;6.90;0.98;;;;;;;;;;5071177;28;20516;-57
2021/10/21 05:53:36;;;;;;;5.40;0.68;;;;;;;;;;5069522;28;20036;-57
2021/10/21 05:56:02;;;;;;;6.97;0.82;;;;;;;;;;5075763;28;20153;-57
2021/10/21 05:58:27;;;;;;;6.72;0.88;;;;;;;;;;5069349;28;20043;-57
2021/10/21 06:00:53;;;;;;;4.35;1.00;;;;;;;;;;5069982;28;20028;-56
2021/10/21 06:03:18;;;;;;;4.95;0.88;;;;;;;;;;5069277;28;20028;-58
2021/10/21 06:05:44;;;;;;;5.32;0.88;;;;;;;;;;5071723;28;20394;-58
2021/10/21 06:08:09;;;;;;;2.83;0.70;;;;;;;;;;5072968;28;20437;-58
2021/10/21 06:10:34;;;;;;;4.68;1.00;;;;;;;;;;5070666;28;20025;-58
2021/10/21 06:13:01;;;;;;;4.50;1.15;;;;;;;;;;5071489;28;20033;-58
2021/10/21 06:15:27;;;;;;;8.30;1.38;;;;;;;;;;5070520;28;20063;-59
2021/10/21 06:17:54;;;;;;;7.60;0.73;;;;;;;;;;5070718;28;20064;-58
2021/10/21 06:20:19;;;;;;;4.93;0.60;;;;;;;;;;5070698;28;20032;-57
2021/10/21 06:22:45;;;;;;;6.07;0.80;;;;;;;;;;5069095;28;20028;-58
2021/10/21 06:25:12;;;;;;;4.93;1.08;;;;;;;;;;5071690;28;20055;-58
2021/10/21 06:27:39;;;;;;;5.93;0.98;;;;;;;;;;5073662;28;20044;-58
2021/10/21 06:30:06;;;;;;;5.38;0.82;;;;;;;;;;5072751;28;20025;-58
2021/10/21 06:32:32;;;;;;;7.72;1.48;;;;;;;;;;5073654;28;20093;-57
2021/10/21 06:34:57;;;;;;;6.70;0.80;;;;;;;;;;5071650;28;20020;-57
2021/10/21 06:37:23;;;;;;;5.72;0.88;;;;;;;;;;5067919;28;20321;-57
2021/10/21 06:39:54;;;;;;;4.22;0.50;;;;;;;;;;5067452;28;20038;-57
2021/10/21 06:42:21;;;;;;;6.05;0.90;;;;;;;;;;5071068;28;20040;-57
2021/10/21 06:44:46;;;;;;;9.48;1.73;;;;;;;;;;5073266;28;20342;-57
2021/10/21 06:47:12;;;;;;;8.55;1.17;;;;;;;;;;5068541;28;20016;-57
2021/10/21 06:49:37;;;;;;;7.88;0.85;;;;;;;;;;5069372;28;20405;-56
2021/10/21 06:52:03;;;;;;;9.02;0.90;;;;;;;;;;5068071;28;20036;-57
2021/10/21 06:54:29;;;;;;;7.15;0.95;;;;;;;;;;5071570;28;20035;-57
2021/10/21 06:56:54;;;;;;;8.05;1.25;;;;;;;;;;5071444;28;20020;-58
2021/10/21 06:59:20;;;;;;;7.95;1.55;;;;;;;;;;5067019;28;20085;-58
2021/10/21 07:01:45;;;;;;;10.43;0.90;;;;;;;;;;5067090;28;20032;-58
2021/10/21 07:04:11;;;;;;;7.10;1.05;;;;;;;;;;5070350;28;20035;-59
2021/10/21 07:06:36;;;;;;;6.45;0.70;;;;;;;;;;5071143;28;20032;-58
2021/10/21 07:09:02;;;;;;;7.65;0.90;;;;;;;;;;5067390;28;20035;-58
2021/10/21 07:11:28;;;;;;;7.32;1.58;;;;;;;;;;5067466;28;20025;-59
2021/10/21 07:13:53;;;;;;;4.97;0.73;;;;;;;;;;5070591;28;20028;-58
2021/10/21 07:16:19;;;;;;;11.65;1.13;;;;;;;;;;5067948;28;20024;-58
2021/10/21 07:18:44;;;;;;;7.10;0.70;;;;;;;;;;5068816;28;20020;-57
2021/10/21 07:21:10;;;;;;;11.15;1.45;;;;;;;;;;5067576;28;20443;-58
2021/10/21 07:23:36;;;;;;;13.30;1.60;;;;;;;;;;5068455;28;20370;-57
2021/10/21 07:26:02;;;;;;;8.90;1.52;;;;;;;;;;5068950;28;20017;-57
2021/10/21 07:28:27;;;;;;;6.45;0.90;;;;;;;;;;5071273;28;20562;-56
2021/10/21 07:30:59;;;;;;;6.32;1.02;;;;;;;;;;5072133;28;20502;-56
2021/10/21 07:33:25;;;;;;;9.13;1.05;;;;;;;;;;5086214;28;20399;-58
2021/10/21 07:35:50;;;;;;;5.72;0.77;;;;;;;;;;5072409;28;20028;-58
2021/10/21 07:38:16;;;;;;;8.48;0.90;;;;;;;;;;5073120;28;20037;-58
2021/10/21 07:40:41;;;;;;;8.35;0.70;;;;;;;;;;5068549;28;20219;-58
2021/10/21 07:43:13;;;;;;;5.28;0.60;;;;;;;;;;5068664;28;20032;-58
2021/10/21 07:45:39;;;;;;;5.60;0.75;;;;;;;;;;5064950;28;20032;-57
2021/10/21 07:48:06;;;;;;;12.38;1.50;;;;;;;;;;5069572;28;20034;-57
2021/10/21 07:50:33;;;;;;;4.38;0.55;;;;;;;;;;5066632;28;20140;-57
2021/10/21 07:52:59;;;;;;;6.60;0.98;;;;;;;;;;5071742;28;20509;-57
2021/10/21 07:55:24;;;;;;;5.13;1.00;;;;;;;;;;5070043;28;20044;-58
2021/10/21 07:57:50;;;;;;;7.35;0.90;;;;;;;;;;5065880;28;20029;-57
2021/10/21 08:00:15;;;;;;;10.25;1.63;;;;;;;;;;5068818;28;20025;-58
2021/10/21 08:02:41;;;;;;;6.47;0.90;;;;;;;;;;5068867;28;20016;-57
2021/10/21 08:05:08;;;;;;;7.70;1.38;;;;;;;;;;5070387;28;20107;-58
2021/10/21 08:07:52;;;;;;;6.45;1.15;;;;;;;;;;5065493;28;20062;-57
2021/10/21 08:10:18;;;;;;;7.43;1.00;;;;;;;;;;5070846;28;20103;-58
2021/10/21 08:12:53;;;;;;;2.45;0.70;;;;;;;;;;5067434;28;20077;-58
2021/10/21 08:15:19;;;;;;;2.63;0.85;;;;;;;;;;5066803;28;20123;-58
2021/10/21 08:17:44;;;;;;;5.50;0.60;;;;;;;;;;5065808;28;20550;-57
2021/10/21 08:20:12;;;;;;;4.25;0.70;;;;;;;;;;5065356;28;20368;-58
2021/10/21 08:22:43;;;;;;;4.25;0.98;;;;;;;;;;5067313;28;20032;-58
2021/10/21 08:25:10;;;;;;;7.70;1.27;;;;;;;;;;5069592;28;20433;-58
2021/10/21 08:27:36;;;;;;;3.30;0.50;;;;;;;;;;5067375;28;20020;-58
2021/10/21 08:30:02;;;;;;;4.13;0.60;;;;;;;;;;5071172;28;20024;-57
2021/10/21 08:32:27;;;;;;;3.05;0.70;;;;;;;;;;5069932;28;20177;-58
2021/10/21 08:34:52;;;;;;;9.48;1.10;;;;;;;;;;5070584;28;20033;-57
2021/10/21 08:37:19;;;;;;;2.25;0.50;;;;;;;;;;5073114;28;20993;-57
2021/10/21 08:39:44;;;;;;;4.18;0.85;;;;;;;;;;5072067;28;20024;-58
2021/10/21 08:42:10;;;;;;;2.95;0.57;;;;;;;;;;5071530;28;20103;-58
2021/10/21 08:44:37;;;;;;;5.13;0.60;;;;;;;;;;5070007;28;20048;-57
2021/10/21 08:47:03;;;;;;;4.07;0.65;;;;;;;;;;5074337;28;20103;-58
2021/10/21 08:49:30;;;;;;;1.27;0.40;;;;;;;;;;5072191;28;20028;-57
2021/10/21 08:51:56;;;;;;;2.88;0.57;;;;;;;;;;5074701;28;20020;-57
2021/10/21 08:54:23;;;;;;;5.85;1.20;;;;;;;;;;5073955;28;20051;-58
2021/10/21 08:56:49;;;;;;;4.85;0.70;;;;;;;;;;5072415;28;20089;-58
2021/10/21 08:59:14;;;;;;;3.45;1.00;;;;;;;;;;5072082;28;20028;-58
2021/10/21 09:01:46;;;;;;;3.78;1.08;;;;;;;;;;5074202;28;20109;-58
2021/10/21 09:04:39;;;;;;;4.88;1.33;;;;;;;;;;5071176;28;20020;-57
2021/10/21 09:09:46;;;;;;;2.58;0.85;;;;;;;;;;5069704;28;20068;-57
2021/10/21 09:12:17;;;;;;;3.22;0.57;;;;;;;;;;5069742;28;20024;-57
2021/10/21 09:14:47;;;;;;;3.08;0.50;;;;;;;;;;5072689;28;20502;-58
2021/10/21 09:17:15;;;;;;;3.70;0.77;;;;;;;;;;5072113;28;20029;-57
2021/10/21 09:19:42;;;;;;;2.63;0.57;;;;;;;;;;5071198;28;21240;-57
2021/10/21 09:22:21;;;;;;;3.95;0.70;;;;;;;;;;5069538;28;20116;-58
2021/10/21 09:24:47;;;;;;;3.13;0.70;;;;;;;;;;5069082;28;20402;-58
2021/10/21 09:27:15;;;;;;;5.72;0.60;;;;;;;;;;5069581;28;20368;-58
2021/10/21 09:29:49;;;;;;;2.78;0.50;;;;;;;;;;5069277;28;20067;-58
2021/10/21 09:32:16;;;;;;;2.30;0.50;;;;;;;;;;5068855;28;20608;-58
2021/10/21 09:34:44;;;;;;;1.88;0.40;;;;;;;;;;5070733;28;20021;-58
2021/10/21 09:37:11;;;;;;;3.78;0.70;;;;;;;;;;5072132;28;20163;-59
2021/10/21 09:39:46;;;;;;;4.47;0.85;;;;;;;;;;5069497;28;20111;-58
2021/10/21 09:42:13;;;;;;;2.05;0.75;;;;;;;;;;5073314;28;20066;-57
2021/10/21 09:44:40;;;;;;;2.50;0.50;;;;;;;;;;5071722;28;20059;-57
2021/10/21 09:47:17;;;;;;;1.52;0.50;;;;;;;;;;5069276;28;20474;-57
2021/10/21 09:49:44;;;;;;;4.65;0.70;;;;;;;;;;5069606;28;20035;-58
2021/10/21 09:52:18;;;;;;;6.82;0.95;;;;;;;;;;5073820;28;20494;-58
2021/10/21 09:54:46;;;;;;;3.83;0.50;;;;;;;;;;5066944;28;20036;-58
2021/10/21 09:57:17;;;;;;;1.95;0.40;;;;;;;;;;5071962;28;20044;-58
2021/10/21 10:00:04;;;;;;;2.75;0.47;;;;;;;;;;5068344;28;20025;-58
2021/10/21 10:02:32;;;;;;;1.88;0.70;;;;;;;;;;5069875;28;20039;-59
2021/10/21 10:05:01;;;;;;;1.52;0.50;;;;;;;;;;5071493;28;20085;-58
2021/10/21 10:07:27;;;;;;;2.28;0.75;;;;;;;;;;5069299;28;20359;-59
2021/10/21 10:09:59;;;;;;;1.05;0.47;;;;;;;;;;5075135;28;20059;-57
2021/10/21 10:12:25;;;;;;;2.25;0.80;;;;;;;;;;5068869;28;20024;-58
2021/10/21 10:14:50;;;;;;;1.80;0.70;;;;;;;;;;5072767;28;20410;-57
2021/10/21 10:17:17;;;;;;;2.33;0.40;;;;;;;;;;5067261;28;20028;-57
2021/10/21 10:19:47;;;;;;;2.15;0.70;;;;;;;;;;5070355;28;20463;-57
2021/10/21 10:22:29;;;;;;;1.98;0.70;;;;;;;;;;5068906;28;20024;-57
2021/10/21 10:24:58;;;;;;;1.95;0.40;;;;;;;;;;5067912;28;20029;-57
2021/10/21 10:27:27;;;;;;;4.00;1.05;;;;;;;;;;5070476;28;20020;-57
2021/10/21 10:29:53;;;;;;;2.65;0.70;;;;;;;;;;5070834;28;20027;-58
2021/10/21 10:32:33;;;;;;;2.15;0.95;;;;;;;;;;5071483;28;20032;-58
2021/10/21 10:35:00;;;;;;;1.05;0.40;;;;;;;;;;5068639;28;20016;-58
2021/10/21 10:37:26;;;;;;;2.60;0.65;;;;;;;;;;5067279;28;20111;-58
2021/10/21 10:39:53;;;;;;;2.15;0.55;;;;;;;;;;5066698;28;20173;-58
2021/10/21 10:42:31;;;;;;;1.85;0.60;;;;;;;;;;5068835;28;20032;-58
2021/10/21 10:44:57;;;;;;;1.60;0.60;;;;;;;;;;5071129;28;20043;-58
2021/10/21 10:47:46;;;;;;;1.65;0.57;;;;;;;;;;5068418;28;20534;-58
2021/10/21 10:50:22;;;;;;;0.95;0.57;;;;;;;;;;5065229;28;20024;-58
2021/10/21 10:52:50;;;;;;;2.08;0.65;;;;;;;;;;5073029;28;20046;-58
2021/10/21 10:55:35;;;;;;;0.98;0.63;;;;;;;;;;5077817;28;20449;-58
2021/10/21 10:58:00;;;;;;;2.53;0.80;;;;;;;;;;5066216;28;20399;-58
2021/10/21 11:00:48;;;;;;;1.88;0.68;;;;;;;;;;5067061;28;20040;-58
2021/10/21 11:03:44;;;;;;;1.80;0.60;;;;;;;;;;5064747;28;20080;-58
2021/10/21 11:06:25;;;;;;;0.68;0.30;;;;;;;;;;5065876;28;20603;-58
2021/10/21 11:08:52;;;;;;;0.50;0.20;;;;;;;;;;5065126;28;20039;-57
2021/10/21 11:11:39;;;;;;;0.50;0.22;;;;;;;;;;5068461;28;21314;-58
2021/10/21 11:14:06;;;;;;;1.02;0.60;;;;;;;;;;5067659;28;20498;-57
2021/10/21 11:16:38;;;;;;;1.67;0.40;;;;;;;;;;5066834;28;20442;-57
2021/10/21 11:19:04;;;;;;;2.08;0.43;;;;;;;;;;5069856;28;20508;-57
2021/10/21 11:21:54;;;;;;;3.17;0.80;;;;;;;;;;5072792;28;20024;-58
2021/10/21 11:24:51;;;;;;;0.95;0.43;;;;;;;;;;5067717;28;20452;-58
2021/10/21 11:27:32;;;;;;;1.92;0.47;;;;;;;;;;5065988;28;20490;-57
2021/10/21 11:30:12;;;;;;;2.90;0.70;;;;;;;;;;5067141;28;20024;-58
2021/10/21 11:32:39;;;;;;;1.60;0.40;;;;;;;;;;5071054;28;20423;-57
2021/10/21 11:35:08;;;;;;;2.72;0.60;;;;;;;;;;5067009;28;20528;-57
2021/10/21 11:37:53;;;;;;;1.88;0.68;;;;;;;;;;5066134;28;20094;-57
2021/10/21 11:40:29;;;;;;;1.35;0.50;;;;;;;;;;5069485;28;20032;-57
2021/10/21 11:42:57;;;;;;;2.05;0.50;;;;;;;;;;5069260;28;20028;-57
2021/10/21 11:45:38;;;;;;;2.80;0.60;;;;;;;;;;5067401;28;20027;-57
2021/10/21 11:48:06;;;;;;;0.95;0.30;;;;;;;;;;5067074;28;20148;-57
2021/10/21 11:50:33;;;;;;;2.05;0.45;;;;;;;;;;5069819;28;20047;-58
2021/10/21 11:52:59;;;;;;;2.30;0.70;;;;;;;;;;5071576;28;20077;-58
2021/10/21 11:55:28;;;;;;;1.05;0.45;;;;;;;;;;5070277;28;20031;-58
2021/10/21 11:57:58;;;;;;;4.95;0.60;;;;;;;;;;5066105;28;20028;-58
2021/10/21 12:00:28;;;;;;;2.42;0.47;;;;;;;;;;5067625;28;20024;-58
2021/10/21 12:02:56;;;;;;;3.67;0.68;;;;;;;;;;5069822;28;20111;-58
2021/10/21 12:05:42;;;;;;;1.02;0.60;;;;;;;;;;5070899;28;20055;-58
2021/10/21 12:08:10;;;;;;;4.60;0.80;;;;;;;;;;5068699;28;20024;-58
2021/10/21 12:10:41;;;;;;;3.72;0.60;;;;;;;;;;5071734;28;20129;-58
2021/10/21 12:13:08;;;;;;;1.77;0.60;;;;;;;;;;5077254;28;20551;-57
2021/10/21 12:15:35;;;;;;;3.33;0.70;;;;;;;;;;5070992;28;20517;-57
2021/10/21 12:18:10;;;;;;;4.90;0.80;;;;;;;;;;5069940;28;20478;-57
2021/10/21 12:20:41;;;;;;;3.17;0.80;;;;;;;;;;5072374;28;20432;-58
2021/10/21 12:23:50;;;;;;;2.70;0.90;;;;;;;;;;5079091;28;20028;-57
2021/10/21 12:26:29;;;;;;;4.80;1.00;;;;;;;;;;5070418;28;20033;-58
2021/10/21 12:29:00;;;;;;;;;;;;;;;;;;5068186;28;20028;-58
2021/10/21 12:31:31;;;;;;;4.97;1.00;;;;;;;;;;5071781;28;19947;-58
2021/10/21 12:34:02;;;;;;;3.20;0.70;;;;;;;;;;5072789;28;20025;-57
2021/10/21 12:36:41;;;;;;;6.35;1.17;;;;;;;;;;5070073;28;20031;-58
2021/10/21 12:39:09;;;;;;;4.28;0.77;;;;;;;;;;5072831;28;20028;-58
2021/10/21 12:41:54;;;;;;;2.75;0.70;;;;;;;;;;5071358;28;20436;-57
2021/10/21 12:44:31;;;;;;;3.17;1.17;;;;;;;;;;5068103;28;20472;-58
2021/10/21 12:47:27;;;;;;;4.38;0.95;;;;;;;;;;5071315;28;20103;-58
2021/10/21 12:49:55;;;;;;;1.73;0.63;;;;;;;;;;5068952;28;20109;-58
2021/10/21 12:52:26;;;;;;;4.45;1.20;;;;;;;;;;5070011;28;20474;-57
2021/10/21 12:55:17;;;;;;;6.32;1.05;;;;;;;;;;5073142;28;20039;-57
2021/10/21 12:57:54;;;;;;;3.80;0.70;;;;;;;;;;5068846;28;20077;-58
2021/10/21 13:00:33;;;;;;;8.50;1.50;;;;;;;;;;5071968;28;20035;-58
2021/10/21 13:03:13;;;;;;;2.67;0.70;;;;;;;;;;5071373;28;20028;-59
2021/10/21 13:05:39;;;;;;;4.72;0.70;;;;;;;;;;5069327;28;20084;-59
2021/10/21 13:08:09;;;;;;;4.72;0.70;;;;;;;;;;5068856;28;20096;-59
2021/10/21 13:10:55;;;;;;;2.72;0.75;;;;;;;;;;5074050;28;20586;-58
2021/10/21 13:13:35;;;;;;;5.20;1.45;;;;;;;;;;5068299;28;20086;-58
2021/10/21 13:16:04;;;;;;;1.95;0.80;;;;;;;;;;5071909;28;20498;-57
2021/10/21 13:18:30;;;;;;;3.13;0.93;;;;;;;;;;5070975;28;20032;-58
2021/10/21 13:20:55;;;;;;;1.55;0.60;;;;;;;;;;5070165;28;20610;-58
2021/10/21 13:23:21;;;;;;;4.45;0.50;;;;;;;;;;5069593;28;20027;-58
2021/10/21 13:25:49;;;;;;;3.72;0.57;;;;;;;;;;5071444;28;20363;-58
2021/10/21 13:28:16;;;;;;;1.35;0.60;;;;;;;;;;5069913;28;20111;-57
2021/10/21 13:30:42;;;;;;;5.28;1.10;;;;;;;;;;5072337;28;20020;-58
2021/10/21 13:33:08;;;;;;;3.38;0.60;;;;;;;;;;5072389;28;20457;-58
2021/10/21 13:35:34;;;;;;;3.17;0.47;;;;;;;;;;5068935;28;20028;-58
2021/10/21 13:38:00;;;;;;;2.30;0.70;;;;;;;;;;5072492;28;20052;-58
2021/10/21 13:40:25;;;;;;;3.03;0.63;;;;;;;;;;5071862;28;20039;-58
2021/10/21 13:42:52;;;;;;;4.22;0.95;;;;;;;;;;5072970;28;20107;-58
2021/10/21 13:45:19;;;;;;;2.30;0.60;;;;;;;;;;5068569;28;20326;-59
2021/10/21 13:47:44;;;;;;;1.80;0.75;;;;;;;;;;5070308;28;20503;-59
2021/10/21 13:50:10;;;;;;;2.95;1.20;;;;;;;;;;5071844;28;20111;-59
2021/10/21 13:52:36;;;;;;;2.88;1.23;;;;;;;;;;5071269;28;20038;-58
2021/10/21 13:55:02;;;;;;;3.22;0.90;;;;;;;;;;5075771;28;20024;-58
2021/10/21 13:57:28;;;;;;;1.98;0.77;;;;;;;;;;5066983;28;20405;-59
2021/10/21 13:59:54;;;;;;;1.88;0.98;;;;;;;;;;5076140;28;20109;-58
2021/10/21 14:02:20;;;;;;;4.95;2.25;;;;;;;;;;5069708;28;20021;-58
2021/10/21 14:04:50;;;;;;;6.07;1.50;;;;;;;;;;5068177;28;20052;-58
2021/10/21 14:07:20;;;;;;;5.18;1.25;;;;;;;;;;5068556;28;20021;-58
2021/10/21 14:09:46;;;;;;;3.15;0.70;;;;;;;;;;5070802;28;20075;-58
2021/10/21 14:12:12;;;;;;;3.65;0.85;;;;;;;;;;5070414;28;20032;-59
2021/10/21 14:14:37;;;;;;;4.95;0.93;;;;;;;;;;5069784;28;20070;-58
2021/10/21 14:17:03;;;;;;;3.05;0.95;;;;;;;;;;5068245;28;20514;-58
2021/10/21 14:19:28;;;;;;;3.15;1.00;;;;;;;;;;5070122;28;20287;-58
2021/10/21 14:21:54;;;;;;;7.05;1.30;;;;;;;;;;5073847;28;20398;-58
2021/10/21 14:24:19;;;;;;;3.67;0.90;;;;;;;;;;5072637;28;20699;-58
2021/10/21 14:26:46;;;;;;;3.63;0.95;;;;;;;;;;5071917;28;20419;-58
2021/10/21 14:29:13;;;;;;;2.88;0.60;;;;;;;;;;5069959;28;20190;-58
2021/10/21 14:31:41;;;;;;;4.75;1.00;;;;;;;;;;5071119;28;20077;-58
2021/10/21 14:34:08;;;;;;;5.77;1.07;;;;;;;;;;5069506;28;20027;-58
2021/10/21 14:36:34;;;;;;;3.15;0.80;;;;;;;;;;5067603;28;20487;-57
2021/10/21 14:39:02;;;;;;;3.78;0.82;;;;;;;;;;5070329;28;20173;-59
2021/10/21 14:41:27;;;;;;;1.48;0.70;;;;;;;;;;5070072;28;20494;-58
2021/10/21 14:43:53;;;;;;;5.03;1.23;;;;;;;;;;5069504;28;20029;-58
2021/10/21 14:46:19;;;;;;;4.43;1.08;;;;;;;;;;5067071;28;20043;-58
2021/10/21 14:48:44;;;;;;;5.63;1.00;;;;;;;;;;5072024;28;20040;-58